createdAt,value
2016-06-16T07:16:36.423Z,995.05
2016-06-16T07:17:36.395Z,995.05
2016-06-16T07:18:36.382Z,995.05
2016-06-16T07:19:36.370Z,995.09
2016-06-16T07:20:36.326Z,995.14
2016-06-16T07:21:36.313Z,995.13
2016-06-16T07:22:36.285Z,995.11
2016-06-16T07:23:36.273Z,995.14
2016-06-16T07:24:36.245Z,995.11
2016-06-16T07:25:36.232Z,995.16
2016-06-16T07:26:36.203Z,995.17
2016-06-16T07:27:36.191Z,995.16
2016-06-16T07:28:36.163Z,995.16
2016-06-16T07:29:36.151Z,995.18
2016-06-16T07:30:36.122Z,995.19
2016-06-16T07:31:36.109Z,995.18
2016-06-16T07:32:36.081Z,995.18
2016-06-16T07:33:36.085Z,995.17
2016-06-16T07:34:36.057Z,995.16
2016-06-16T07:48:37.677Z,995.21
2016-06-16T07:48:42.458Z,995.21
2016-06-16T07:49:42.430Z,995.21
2016-06-16T07:50:42.402Z,995.22
2016-06-16T07:51:42.389Z,995.19
2016-06-16T07:52:42.361Z,995.19
2016-06-16T07:53:42.348Z,995.16
2016-06-16T07:54:42.321Z,995.13
2016-06-16T07:55:42.308Z,995.12
2016-06-16T07:56:42.280Z,995.12
2016-06-16T07:57:42.267Z,995.07
2016-06-16T07:58:42.238Z,995.05
2016-06-16T07:59:42.258Z,995.06
2016-06-16T08:00:42.198Z,995.08
2016-06-16T08:01:42.170Z,995.07
2016-06-16T08:02:42.173Z,995.04
2016-06-16T08:03:42.129Z,995.02
2016-06-16T08:04:42.117Z,995.01
2016-06-16T08:05:42.151Z,995.02
2016-06-16T08:06:42.077Z,995.02
2016-06-16T08:07:42.049Z,995.02
2016-06-16T08:08:42.052Z,995.01
2016-06-16T08:09:42.008Z,995.03
2016-06-16T08:10:41.995Z,995.05
2016-06-16T08:11:41.966Z,995.09
2016-06-16T08:12:41.954Z,995.11
2016-06-16T08:13:41.926Z,995.14
2016-06-16T08:14:41.897Z,995.16
2016-06-16T08:15:41.885Z,995.16
2016-06-16T08:16:41.888Z,995.22
2016-06-16T08:17:41.844Z,995.24
2016-06-16T08:18:41.817Z,995.28
2016-06-16T08:19:43.225Z,995.29
2016-06-16T08:20:41.775Z,995.33
2016-06-16T08:21:41.763Z,995.37
2016-06-16T08:22:41.750Z,995.41
2016-06-16T08:23:41.738Z,995.47
2016-06-16T08:24:41.709Z,995.48
2016-06-16T08:25:41.728Z,995.52
2016-06-16T08:26:41.668Z,995.55
2016-06-16T08:27:41.641Z,995.54
2016-06-16T08:28:41.675Z,995.56
2016-06-16T08:29:41.600Z,995.53
2016-06-16T08:30:41.572Z,995.56
2016-06-16T08:31:41.559Z,995.51
2016-06-16T08:32:41.531Z,995.53
2016-06-16T08:33:41.518Z,995.53
2016-06-16T08:34:41.491Z,995.52
2016-06-16T08:35:41.478Z,995.52
2016-06-16T08:36:41.450Z,995.54
2016-06-16T08:37:41.436Z,995.53
2016-06-16T08:38:41.409Z,995.57
2016-06-16T08:39:41.443Z,995.55
2016-06-16T08:40:41.400Z,995.5
2016-06-16T08:41:41.371Z,995.5
2016-06-16T08:42:41.344Z,995.5
2016-06-16T08:43:41.316Z,995.43
2016-06-16T08:44:41.288Z,995.43
2016-06-16T08:45:41.259Z,995.36
2016-06-16T08:46:41.247Z,995.33
2016-06-16T08:47:41.233Z,995.29
2016-06-16T08:48:21.206Z,995.25
2016-06-16T08:49:21.209Z,995.28
2016-06-16T08:50:21.166Z,995.25
2016-06-16T08:51:21.137Z,995.21
2016-06-16T08:52:21.124Z,995.23
2016-06-16T08:53:21.097Z,995.22
2016-06-16T08:54:21.131Z,995.25
2016-06-16T08:55:21.056Z,995.3
2016-06-16T08:56:21.042Z,995.32
2016-06-16T08:57:21.031Z,995.34
2016-06-16T08:58:21.017Z,995.34
2016-06-16T08:59:20.990Z,995.37
2016-06-16T09:00:20.962Z,995.35
2016-06-16T09:01:20.933Z,995.36
2016-06-16T09:02:20.936Z,995.36
2016-06-16T09:03:20.892Z,995.37
2016-06-16T09:04:20.880Z,995.39
2016-06-16T09:05:20.853Z,995.43
2016-06-16T09:06:21.089Z,995.44
2016-06-16T09:07:20.826Z,995.45
2016-06-16T09:08:20.798Z,995.42
2016-06-16T09:09:20.771Z,995.41
2016-06-16T09:10:20.758Z,995.43
2016-06-16T09:11:20.792Z,995.5
2016-06-16T09:12:20.716Z,995.46
2016-06-16T09:13:20.705Z,995.47
2016-06-16T09:14:20.692Z,995.5
2016-06-16T09:15:20.679Z,995.51
2016-06-16T09:16:20.651Z,995.49
2016-06-16T09:17:20.623Z,995.5
2016-06-16T09:18:20.907Z,995.47
2016-06-16T09:19:20.583Z,995.47
2016-06-16T09:20:20.601Z,995.48
2016-06-16T09:21:20.542Z,995.49
2016-06-16T09:22:20.529Z,995.48
2016-06-16T09:23:20.500Z,995.47
2016-06-16T09:24:20.473Z,995.45
2016-06-16T09:25:20.460Z,995.45
2016-06-16T09:26:20.526Z,995.44
2016-06-16T09:27:20.435Z,995.46
2016-06-16T09:28:20.423Z,995.45
2016-06-16T09:29:23.394Z,995.41
2016-06-16T09:30:20.366Z,995.39
2016-06-16T09:31:20.338Z,995.39
2016-06-16T09:32:20.325Z,995.41
2016-06-16T09:33:20.501Z,995.37
2016-06-16T09:34:20.282Z,995.39
2016-06-16T09:35:20.253Z,995.35
2016-06-16T09:36:20.226Z,995.33
2016-06-16T09:37:20.213Z,995.32
2016-06-16T09:38:20.201Z,995.35
2016-06-16T09:39:20.171Z,995.36
2016-06-16T09:40:20.160Z,995.32
2016-06-16T09:41:20.131Z,995.34
2016-06-16T09:42:20.119Z,995.33
2016-06-16T09:43:20.106Z,995.33
2016-06-16T09:44:20.140Z,995.32
2016-06-16T09:45:20.128Z,995.34
2016-06-16T09:46:20.053Z,995.29
2016-06-16T09:47:20.025Z,995.28
2016-06-16T09:48:19.996Z,995.35
2016-06-16T09:49:20.030Z,995.36
2016-06-16T09:50:19.972Z,995.37
2016-06-16T09:51:19.927Z,995.4
2016-06-16T09:52:19.915Z,995.43
2016-06-16T09:53:19.903Z,995.47
2016-06-16T09:54:19.921Z,995.48
2016-06-16T09:55:19.861Z,995.53
2016-06-16T09:56:19.834Z,995.54
2016-06-16T09:57:19.821Z,995.5
2016-06-16T09:58:20.152Z,995.54
2016-06-16T09:59:19.811Z,995.53
2016-06-16T10:00:19.768Z,995.49
2016-06-16T10:01:19.755Z,995.49
2016-06-16T10:02:19.727Z,995.45
2016-06-16T10:03:19.715Z,995.5
2016-06-16T10:04:19.687Z,995.49
2016-06-16T10:05:19.721Z,995.5
2016-06-16T10:06:19.818Z,995.52
2016-06-16T10:07:19.633Z,995.55
2016-06-16T10:08:19.604Z,995.52
2016-06-16T10:09:19.780Z,995.5
2016-06-16T10:10:19.564Z,995.51
2016-06-16T10:11:19.598Z,995.44
2016-06-16T10:12:19.523Z,995.44
2016-06-16T10:13:19.558Z,995.43
2016-06-16T10:14:19.545Z,995.42
2016-06-16T10:15:19.486Z,995.39
2016-06-16T10:16:19.458Z,995.37
2016-06-16T10:17:19.429Z,995.35
2016-06-16T10:18:19.402Z,995.34
2016-06-16T10:19:19.388Z,995.28
2016-06-16T10:20:19.392Z,995.29
2016-06-16T10:21:19.348Z,995.3
2016-06-16T10:22:19.336Z,995.31
2016-06-16T10:23:19.417Z,995.25
2016-06-16T10:24:19.295Z,995.29
2016-06-16T10:25:19.298Z,995.32
2016-06-16T10:26:19.254Z,995.31
2016-06-16T10:27:19.241Z,995.29
2016-06-16T10:28:19.214Z,995.35
2016-06-16T10:29:19.200Z,995.29
2016-06-16T10:30:19.173Z,995.32
2016-06-16T10:31:19.176Z,995.36
2016-06-16T10:32:19.148Z,995.39
2016-06-16T10:33:19.120Z,995.34
2016-06-16T10:34:19.154Z,995.37
2016-06-16T10:35:19.125Z,995.35
2016-06-16T10:36:19.066Z,995.36
2016-06-16T10:37:19.038Z,995.36
2016-06-16T10:38:19.041Z,995.39
2016-06-16T10:39:18.997Z,995.39
2016-06-16T10:40:19.000Z,995.35
2016-06-16T10:41:18.973Z,995.39
2016-06-16T10:42:18.959Z,995.34
2016-06-16T10:43:18.931Z,995.33
2016-06-16T10:44:18.934Z,995.33
2016-06-16T10:45:18.891Z,995.31
2016-06-16T10:46:18.863Z,995.29
2016-06-16T10:47:18.850Z,995.32
2016-06-16T10:48:18.853Z,995.3
2016-06-16T10:49:18.950Z,995.31
2016-06-16T10:50:18.843Z,995.34
2016-06-16T10:51:18.784Z,995.32
2016-06-16T10:52:18.756Z,995.37
2016-06-16T10:53:18.806Z,995.35
2016-06-16T10:54:18.715Z,995.3
2016-06-16T10:55:18.719Z,995.27
2016-06-16T10:56:18.674Z,995.25
2016-06-16T10:57:18.694Z,995.23
2016-06-16T10:58:18.728Z,995.27
2016-06-16T10:59:18.621Z,995.25
2016-06-16T11:00:18.623Z,995.24
2016-06-16T11:01:18.581Z,995.21
2016-06-16T11:02:18.552Z,995.2
2016-06-16T11:03:18.555Z,995.2
2016-06-16T11:04:18.559Z,995.22
2016-06-16T11:07:41.540Z,995.17
2016-06-16T11:09:46.061Z,995.15
2016-06-16T11:10:46.049Z,995.1
2016-06-16T11:11:46.021Z,995.09
2016-06-16T11:13:45.980Z,995.08
2016-06-16T11:14:45.968Z,995.05
2016-06-16T11:15:45.971Z,995
2016-06-16T11:16:46.005Z,995.03
2016-06-16T11:17:45.914Z,995.04
2016-06-16T11:18:45.886Z,995.02
2016-06-16T11:19:45.873Z,995.05
2016-06-16T11:20:45.846Z,995.04
2016-06-16T11:21:45.818Z,995.03
2016-06-16T11:22:45.836Z,995.05
2016-06-16T11:23:45.839Z,995.05
2016-06-16T11:24:45.764Z,995.04
2016-06-16T11:25:45.767Z,995.03
2016-06-16T11:26:45.738Z,995.09
2016-06-16T11:27:45.773Z,995.07
2016-06-16T11:28:45.745Z,995.09
2016-06-16T11:29:45.670Z,995.08
2016-06-16T11:30:45.657Z,995.09
2016-06-16T11:31:45.645Z,995.08
2016-06-16T11:32:45.663Z,995.1
2016-06-16T11:33:45.620Z,995.08
2016-06-16T11:34:45.591Z,995.1
2016-06-16T11:35:45.564Z,995.08
2016-06-16T11:36:45.551Z,995.09
2016-06-16T11:37:45.522Z,995.03
2016-06-16T11:38:45.525Z,995.01
2016-06-16T11:39:45.482Z,995.05
2016-06-16T11:40:45.469Z,995.05
2016-06-16T11:41:45.441Z,995.03
2016-06-16T11:42:45.444Z,995
2016-06-16T11:43:45.416Z,994.92
2016-06-16T11:44:45.388Z,994.9
2016-06-16T11:45:45.375Z,994.88
2016-06-16T11:46:45.348Z,994.9
2016-06-16T11:47:45.334Z,994.85
2016-06-16T11:48:45.337Z,994.84
2016-06-16T11:49:45.340Z,994.84
2016-06-16T11:50:45.281Z,994.87
2016-06-16T11:51:45.253Z,994.84
2016-06-16T11:52:45.256Z,994.81
2016-06-16T11:53:45.228Z,994.83
2016-06-16T11:54:45.294Z,994.8
2016-06-16T11:55:45.187Z,994.78
2016-06-16T11:56:45.175Z,994.8
2016-06-16T11:57:45.146Z,994.82
2016-06-16T11:58:45.135Z,994.84
2016-06-16T11:59:45.091Z,994.8
2016-06-16T12:00:45.093Z,994.83
2016-06-16T12:01:45.066Z,994.79
2016-06-16T12:02:45.053Z,994.75
2016-06-16T12:03:45.039Z,994.78
2016-06-16T12:04:45.075Z,994.71
2016-06-16T12:05:44.999Z,994.62
2016-06-16T12:06:44.971Z,994.64
2016-06-16T12:07:44.959Z,994.66
2016-06-16T12:08:44.946Z,994.64
2016-06-16T12:09:44.918Z,994.58
2016-06-16T12:10:44.905Z,994.59
2016-06-16T12:11:44.892Z,994.65
2016-06-16T12:12:44.864Z,994.63
2016-06-16T12:13:44.852Z,994.61
2016-06-16T12:14:44.824Z,994.62
2016-06-16T12:15:44.796Z,994.57
2016-06-16T12:16:44.814Z,994.67
2016-06-16T12:17:44.786Z,994.61
2016-06-16T12:18:44.758Z,994.59
2016-06-16T12:19:44.777Z,994.57
2016-06-16T12:20:44.733Z,994.57
2016-06-16T12:21:44.705Z,994.56
2016-06-16T12:22:44.676Z,994.56
2016-06-16T12:23:44.664Z,994.57
2016-06-16T12:24:44.652Z,994.5
2016-06-16T12:25:44.639Z,994.52
2016-06-16T12:26:44.626Z,994.57
2016-06-16T12:27:44.613Z,994.56
2016-06-16T12:28:44.586Z,994.57
2016-06-16T12:29:44.573Z,994.5
2016-06-16T12:30:44.561Z,994.51
2016-06-16T12:31:44.548Z,994.51
2016-06-16T12:32:44.520Z,994.58
2016-06-16T12:33:44.507Z,994.52
2016-06-16T12:34:44.495Z,994.49
2016-06-16T12:35:44.482Z,994.46
2016-06-16T12:36:44.454Z,994.43
2016-06-16T12:37:44.458Z,994.42
2016-06-16T12:38:44.430Z,994.45
2016-06-16T12:39:44.478Z,994.46
2016-06-16T12:40:44.389Z,994.44
2016-06-16T12:41:44.391Z,994.46
2016-06-16T12:42:44.362Z,994.41
2016-06-16T12:43:44.382Z,994.37
2016-06-16T12:44:44.353Z,994.34
2016-06-16T12:45:44.310Z,994.38
2016-06-16T12:46:44.297Z,994.33
2016-06-16T12:47:44.285Z,994.32
2016-06-16T12:48:44.256Z,994.33
2016-06-16T12:49:44.244Z,994.38
2016-06-16T12:50:44.231Z,994.33
2016-06-16T12:51:44.204Z,994.33
2016-06-16T12:52:44.191Z,994.28
2016-06-16T12:59:05.990Z,994.3
2016-06-16T13:00:05.978Z,994.3
2016-06-16T13:01:05.965Z,994.28
2016-06-16T13:02:06.047Z,994.34
2016-06-16T13:03:05.910Z,994.31
2016-06-16T13:04:05.897Z,994.33
2016-06-16T13:05:05.869Z,994.4
2016-06-16T13:06:05.933Z,994.37
2016-06-16T13:07:05.844Z,994.37
2016-06-16T13:08:05.831Z,994.44
2016-06-16T13:09:05.803Z,994.45
2016-06-16T13:10:05.790Z,994.57
2016-06-16T13:11:05.778Z,994.73
2016-06-16T13:12:05.750Z,994.68
2016-06-16T13:13:05.769Z,994.7
2016-06-16T13:14:05.709Z,994.79
2016-06-16T13:15:05.697Z,994.8
2016-06-16T13:16:05.684Z,994.91
2016-06-16T13:17:05.718Z,994.96
2016-06-16T13:18:05.909Z,995.08
2016-06-16T13:19:05.646Z,995.19
2016-06-16T13:20:05.602Z,995.25
2016-06-16T13:21:05.590Z,995.3
2016-06-16T13:22:05.640Z,995.31
2016-06-16T13:23:05.533Z,995.31
2016-06-16T13:24:05.537Z,995.3
2016-06-16T13:25:05.524Z,995.31
2016-06-16T13:26:05.528Z,995.31
2016-06-16T13:27:05.467Z,995.33
2016-06-16T13:28:05.455Z,995.34
2016-06-16T13:29:05.427Z,995.34
2016-06-16T13:30:05.430Z,995.29
2016-06-16T13:31:05.401Z,995.33
2016-06-16T13:32:05.374Z,995.3
2016-06-16T13:33:05.361Z,995.31
2016-06-16T13:34:05.333Z,995.3
2016-06-16T13:35:05.320Z,995.32
2016-06-16T13:36:05.292Z,995.29
2016-06-16T13:37:05.279Z,995.33
2016-06-16T13:38:05.267Z,995.33
2016-06-16T13:39:05.238Z,995.37
2016-06-16T13:40:05.227Z,995.39
2016-06-16T13:41:05.199Z,995.41
2016-06-16T13:42:05.170Z,995.43
2016-06-16T13:43:05.158Z,995.43
2016-06-16T13:44:05.129Z,995.46
2016-06-16T13:45:05.101Z,995.54
2016-06-16T13:46:05.089Z,995.54
2016-06-16T13:47:05.077Z,995.56
2016-06-16T13:48:05.048Z,995.57
2016-06-16T13:49:05.035Z,995.53
2016-06-16T13:50:05.022Z,995.51
2016-06-16T13:51:04.994Z,995.41
2016-06-16T13:52:04.967Z,995.3
2016-06-16T13:53:05.001Z,995.26
2016-06-16T13:58:48.513Z,995.22
2016-06-16T13:59:48.595Z,995.2
2016-06-16T14:00:48.472Z,995.2
2016-06-16T14:01:48.461Z,995.14
2016-06-16T14:02:48.526Z,995.14
2016-06-16T14:03:48.435Z,995.09
2016-06-16T14:04:48.391Z,995.1
2016-06-16T14:05:48.379Z,995.09
2016-06-16T14:06:48.367Z,995.13
2016-06-16T14:07:48.416Z,995.13
2016-06-16T14:08:48.326Z,995.11
2016-06-16T14:09:48.298Z,995.09
2016-06-16T14:10:48.301Z,995.12
2016-06-16T14:11:48.256Z,995.11
2016-06-16T14:12:48.245Z,995.11
2016-06-16T14:13:48.232Z,995.09
2016-06-16T14:14:48.218Z,995.06
2016-06-16T14:15:48.175Z,995.04
2016-06-16T14:16:48.148Z,995.01
2016-06-16T14:17:48.136Z,995
2016-06-16T14:18:48.107Z,994.97
2016-06-16T14:19:48.268Z,994.97
2016-06-16T14:20:48.084Z,994.98
2016-06-16T14:21:48.055Z,994.93
2016-06-16T14:22:48.028Z,994.93
2016-06-16T14:23:48.014Z,994.97
2016-06-16T14:24:47.986Z,994.95
2016-06-16T14:25:47.974Z,994.96
2016-06-16T14:26:47.945Z,994.93
2016-06-16T14:27:47.933Z,994.91
2016-06-16T14:28:47.904Z,994.94
2016-06-16T14:29:47.939Z,994.88
2016-06-16T14:30:47.880Z,994.85
2016-06-16T14:31:47.851Z,994.84
2016-06-16T14:32:47.824Z,994.83
2016-06-16T14:33:47.814Z,994.82
2016-06-16T14:34:47.786Z,994.8
2016-06-16T14:35:47.777Z,994.83
2016-06-16T14:36:47.766Z,994.79
2016-06-16T14:37:47.739Z,994.77
2016-06-16T14:38:47.774Z,994.78
2016-06-16T14:39:47.700Z,994.79
2016-06-16T14:40:47.673Z,994.8
2016-06-16T14:41:47.661Z,994.81
2016-06-16T14:42:47.633Z,994.85
2016-06-16T14:43:47.621Z,994.8
2016-06-16T14:44:47.594Z,994.86
2016-06-16T14:45:47.613Z,994.82
2016-06-16T14:46:47.570Z,994.76
2016-06-16T14:47:47.556Z,994.72
2016-06-16T14:48:47.529Z,994.74
2016-06-16T14:49:47.501Z,994.72
2016-06-16T14:50:47.489Z,994.71
2016-06-16T14:51:47.463Z,994.68
2016-06-16T14:52:47.544Z,994.69
2016-06-16T14:53:47.424Z,994.69
2016-06-16T14:54:47.412Z,994.74
2016-06-16T14:55:47.400Z,994.67
2016-06-16T14:56:47.388Z,994.67
2016-06-16T14:57:47.360Z,994.69
2016-06-16T14:58:47.348Z,994.69
2016-06-16T14:59:47.320Z,994.65
2016-06-16T15:00:47.370Z,994.71
2016-06-16T15:01:47.280Z,994.71
2016-06-16T15:02:47.267Z,994.73
2016-06-16T15:03:47.240Z,994.75
2016-06-16T15:04:47.227Z,994.74
2016-06-16T15:05:47.215Z,994.7
2016-06-16T15:06:47.188Z,994.71
2016-06-16T15:07:47.285Z,994.69
2016-06-16T15:08:47.180Z,994.73
2016-06-16T15:09:47.154Z,994.74
2016-06-16T15:10:47.111Z,994.75
2016-06-16T15:11:47.098Z,994.78
2016-06-16T15:12:47.087Z,994.81
2016-06-16T15:13:47.075Z,994.82
2016-06-16T15:14:47.094Z,994.81
2016-06-16T15:15:47.066Z,994.86
2016-06-16T15:16:47.007Z,994.89
2016-06-16T15:17:47.479Z,994.88
2016-06-16T15:18:46.998Z,994.89
2016-06-16T15:19:46.969Z,994.88
2016-06-16T15:20:46.942Z,994.92
2016-06-16T15:21:46.928Z,994.91
2016-06-16T15:22:46.900Z,994.93
2016-06-16T15:23:46.888Z,994.94
2016-06-16T15:24:46.860Z,995.01
2016-06-16T15:25:46.833Z,994.99
2016-06-16T15:26:46.835Z,994.98
2016-06-16T15:27:46.807Z,994.99
2016-06-16T15:28:46.780Z,995
2016-06-16T15:29:46.768Z,994.97
2016-06-16T15:30:46.772Z,995.03
2016-06-16T15:31:46.728Z,995.03
2016-06-16T15:32:46.715Z,995.06
2016-06-16T15:33:46.703Z,995.08
2016-06-16T15:34:46.660Z,995.08
2016-06-16T15:35:46.663Z,995.1
2016-06-16T15:36:46.634Z,995.11
2016-06-16T15:37:46.622Z,995.11
2016-06-16T15:38:46.593Z,995.15
2016-06-16T15:39:46.582Z,995.16
2016-06-16T15:40:46.555Z,995.16
2016-06-16T15:41:46.547Z,995.16
2016-06-16T15:42:46.523Z,995.13
2016-06-16T15:43:46.515Z,995.13
2016-06-16T15:44:46.507Z,995.12
2016-06-16T15:45:46.482Z,995.16
2016-06-16T15:46:46.472Z,995.15
2016-06-16T15:47:46.446Z,995.12
2016-06-16T15:48:46.419Z,995.14
2016-06-16T15:49:46.409Z,995.16
2016-06-16T15:50:46.382Z,995.13
2016-06-16T15:51:46.386Z,995.15
2016-06-16T15:52:46.359Z,995.11
2016-06-16T15:53:46.331Z,995.13
2016-06-16T15:54:46.320Z,995.12
2016-06-16T15:55:46.292Z,995.11
2016-06-16T15:56:46.280Z,995.11
2016-06-16T15:57:46.269Z,995.09
2016-06-16T15:58:46.226Z,995.09
2016-06-16T15:59:46.213Z,995.04
2016-06-16T16:00:46.200Z,995.03
2016-06-16T16:01:46.173Z,995.05
2016-06-16T16:02:46.176Z,994.98
2016-06-16T16:03:46.133Z,994.99
2016-06-16T16:04:46.122Z,994.98
2016-06-16T16:05:46.108Z,994.98
2016-06-16T16:06:46.065Z,995.01
2016-06-16T16:07:46.054Z,994.98
2016-06-16T16:08:46.072Z,995.02
2016-06-16T16:09:46.014Z,994.98
2016-06-16T16:10:46.017Z,995
2016-06-16T16:11:45.974Z,994.95
2016-06-16T16:12:45.961Z,994.96
2016-06-16T16:13:45.933Z,995
2016-06-16T16:14:45.921Z,994.98
2016-06-16T16:15:45.985Z,994.95
2016-06-16T16:16:45.878Z,994.97
2016-06-16T16:17:45.865Z,994.94
2016-06-16T16:18:45.850Z,994.91
2016-06-16T16:19:45.806Z,994.91
2016-06-16T16:20:45.794Z,994.89
2016-06-16T16:21:45.764Z,994.92
2016-06-16T16:22:45.753Z,994.92
2016-06-16T16:23:45.756Z,994.89
2016-06-16T16:24:45.711Z,994.85
2016-06-16T16:25:45.715Z,994.85
2016-06-16T16:26:45.672Z,994.86
2016-06-16T16:27:45.644Z,994.87
2016-06-16T16:28:45.632Z,994.85
2016-06-16T16:29:45.604Z,994.83
2016-06-16T16:30:45.733Z,994.83
2016-06-16T16:31:45.581Z,994.82
2016-06-16T16:32:45.567Z,994.83
2016-06-16T16:33:45.524Z,994.84
2016-06-16T16:34:45.527Z,994.82
2016-06-16T16:35:45.499Z,994.81
2016-06-16T16:36:45.473Z,994.82
2016-06-16T16:37:45.459Z,994.78
2016-06-16T16:38:45.479Z,994.84
2016-06-16T16:39:45.420Z,994.8
2016-06-16T16:40:45.392Z,994.82
2016-06-16T16:41:45.427Z,994.86
2016-06-16T16:42:45.368Z,994.83
2016-06-16T16:43:45.450Z,994.79
2016-06-16T16:44:45.453Z,994.81
2016-06-16T16:45:45.315Z,994.78
2016-06-16T16:46:45.304Z,994.79
2016-06-16T16:47:45.260Z,994.76
2016-06-16T16:48:45.232Z,994.76
2016-06-16T16:49:45.220Z,994.73
2016-06-16T16:50:45.208Z,994.74
2016-06-16T16:51:45.179Z,994.73
2016-06-16T16:52:45.152Z,994.7
2016-06-16T16:53:45.138Z,994.71
2016-06-16T16:54:45.125Z,994.74
2016-06-16T16:55:45.114Z,994.76
2016-06-16T16:56:45.071Z,994.75
2016-06-16T16:57:45.058Z,994.78
2016-06-16T16:58:45.062Z,994.78
2016-06-16T16:59:45.018Z,994.8
2016-06-16T17:00:45.021Z,994.8
2016-06-16T17:01:45.010Z,994.82
2016-06-16T17:02:44.966Z,994.86
2016-06-16T17:03:44.939Z,994.86
2016-06-16T17:04:44.926Z,994.85
2016-06-16T17:05:44.913Z,994.89
2016-06-16T17:06:44.886Z,994.86
2016-06-16T17:07:44.921Z,994.88
2016-06-16T17:08:44.862Z,994.81
2016-06-16T17:09:44.819Z,994.79
2016-06-16T17:10:44.806Z,994.73
2016-06-16T17:11:44.779Z,994.75
2016-06-16T17:12:44.767Z,994.7
2016-06-16T17:13:44.802Z,994.7
2016-06-16T17:14:44.758Z,994.69
2016-06-16T17:15:44.714Z,994.63
2016-06-16T17:16:44.687Z,994.62
2016-06-16T17:17:44.674Z,994.58
2016-06-16T17:18:44.647Z,994.59
2016-06-16T17:19:44.634Z,994.58
2016-06-16T17:20:44.603Z,994.59
2016-06-16T17:21:44.606Z,994.58
2016-06-16T17:23:44.536Z,994.54
2016-06-16T17:24:44.540Z,994.52
2016-06-16T17:25:44.499Z,994.49
2016-06-16T17:26:44.489Z,994.46
2016-06-16T17:27:44.463Z,994.42
2016-06-16T17:28:44.453Z,994.37
2016-06-16T17:29:44.441Z,994.36
2016-06-16T17:30:44.415Z,994.34
2016-06-16T17:31:44.403Z,994.34
2016-06-16T17:32:44.376Z,994.32
2016-06-16T17:33:44.350Z,994.3
2016-06-16T17:34:44.353Z,994.3
2016-06-16T17:35:44.341Z,994.23
2016-06-16T17:36:44.298Z,994.23
2016-06-16T17:37:44.286Z,994.21
2016-06-16T17:38:44.259Z,994.24
2016-06-16T17:39:44.231Z,994.2
2016-06-16T17:40:44.235Z,994.23
2016-06-16T17:41:44.208Z,994.18
2016-06-16T17:42:44.179Z,994.21
2016-06-16T17:43:44.151Z,994.17
2016-06-16T17:44:44.140Z,994.16
2016-06-16T17:45:44.111Z,994.17
2016-06-16T17:46:44.100Z,994.19
2016-06-16T17:47:44.071Z,994.2
2016-06-16T17:48:44.074Z,994.19
2016-06-16T17:49:44.124Z,994.14
2016-06-16T17:50:44.050Z,994.12
2016-06-16T17:51:43.992Z,994.1
2016-06-16T17:52:43.980Z,994.08
2016-06-16T17:53:44.061Z,994.02
2016-06-16T17:54:43.939Z,993.99
2016-06-16T17:55:43.943Z,994.03
2016-06-16T17:56:43.899Z,994.07
2016-06-16T17:57:43.887Z,994.06
2016-06-16T17:58:43.859Z,994.07
2016-06-16T17:59:43.847Z,994.11
2016-06-16T18:00:43.835Z,994.09
2016-06-16T18:01:43.808Z,994.09
2016-06-16T18:02:43.780Z,994.05
2016-06-16T18:03:43.768Z,994.06
2016-06-16T18:04:43.740Z,994.08
2016-06-16T18:05:43.727Z,994.1
2016-06-16T18:06:43.716Z,994.11
2016-06-16T18:07:43.687Z,994.12
2016-06-16T18:08:43.769Z,994.15
2016-06-16T18:09:43.632Z,994.16
2016-06-16T18:10:43.619Z,994.16
2016-06-16T18:11:43.936Z,994.15
2016-06-16T18:12:43.579Z,994.12
2016-06-16T18:13:43.615Z,994.18
2016-06-16T18:14:43.540Z,994.18
2016-06-16T18:15:43.511Z,994.2
2016-06-16T18:16:43.500Z,994.21
2016-06-16T18:17:43.534Z,994.22
2016-06-16T18:18:43.460Z,994.18
2016-06-16T18:19:43.432Z,994.21
2016-06-16T18:20:43.420Z,994.12
2016-06-16T18:21:43.407Z,994.12
2016-06-16T18:22:43.380Z,994.1
2016-06-16T18:23:43.462Z,994.1
2016-06-16T18:24:43.340Z,994.09
2016-06-16T18:25:43.327Z,994.14
2016-06-16T18:26:43.300Z,994.16
2016-06-16T18:27:43.272Z,994.18
2016-06-16T18:28:43.292Z,994.18
2016-06-16T18:29:43.233Z,994.18
2016-06-16T18:30:43.236Z,994.22
2016-06-16T18:31:43.192Z,994.24
2016-06-16T18:32:43.182Z,994.24
2016-06-16T18:33:43.468Z,994.3
2016-06-16T18:34:43.255Z,994.3
2016-06-16T18:35:43.119Z,994.31
2016-06-16T18:36:43.093Z,994.28
2016-06-16T18:37:43.098Z,994.29
2016-06-16T18:38:43.071Z,994.29
2016-06-16T18:39:43.044Z,994.32
2016-06-16T18:40:43.049Z,994.33
2016-06-16T18:41:43.208Z,994.34
2016-06-16T18:42:42.994Z,994.37
2016-06-16T18:43:42.966Z,994.38
2016-06-16T18:44:42.954Z,994.37
2016-06-16T18:45:42.957Z,994.36
2016-06-16T18:46:42.945Z,994.37
2016-06-16T18:47:42.949Z,994.37
2016-06-16T18:48:42.858Z,994.39
2016-06-16T18:49:42.846Z,994.36
2016-06-16T18:50:42.819Z,994.39
2016-06-16T18:51:42.806Z,994.38
2016-06-16T18:52:42.841Z,994.37
2016-06-16T18:53:42.766Z,994.4
2016-06-16T18:54:42.754Z,994.43
2016-06-16T18:55:42.758Z,994.39
2016-06-16T18:56:42.698Z,994.46
2016-06-16T18:57:42.687Z,994.43
2016-06-16T18:58:42.659Z,994.4
2016-06-16T18:59:42.646Z,994.42
2016-06-16T19:00:42.619Z,994.34
2016-06-16T19:01:42.606Z,994.36
2016-06-16T19:02:42.579Z,994.35
2016-06-16T19:03:42.552Z,994.36
2016-06-16T19:04:42.538Z,994.4
2016-06-16T19:05:42.526Z,994.38
2016-06-16T19:06:42.499Z,994.4
2016-06-16T19:07:42.487Z,994.43
2016-06-16T19:08:42.461Z,994.47
2016-06-16T19:09:42.480Z,994.49
2016-06-16T19:10:42.422Z,994.47
2016-06-16T19:11:42.394Z,994.48
2016-06-16T19:12:42.399Z,994.41
2016-06-16T19:13:42.356Z,994.41
2016-06-16T19:14:42.359Z,994.38
2016-06-16T19:15:42.316Z,994.34
2016-06-16T19:16:42.319Z,994.32
2016-06-16T19:17:42.449Z,994.37
2016-06-16T19:18:42.249Z,994.39
2016-06-16T19:19:42.252Z,994.41
2016-06-16T19:20:42.225Z,994.4
2016-06-16T19:21:42.212Z,994.38
2016-06-16T19:22:42.184Z,994.41
2016-06-16T19:23:42.158Z,994.41
2016-06-16T19:24:42.144Z,994.45
2016-06-16T19:25:42.117Z,994.49
2016-06-16T19:26:42.120Z,994.53
2016-06-16T19:27:42.077Z,994.6
2016-06-16T19:28:42.097Z,994.6
2016-06-16T19:29:42.037Z,994.59
2016-06-16T19:30:42.025Z,994.64
2016-06-16T19:31:42.013Z,994.66
2016-06-16T19:32:41.985Z,994.72
2016-06-16T19:33:41.957Z,994.75
2016-06-16T19:34:41.945Z,994.68
2016-06-16T19:35:41.932Z,994.64
2016-06-16T19:36:41.889Z,994.59
2016-06-16T19:37:41.892Z,994.54
2016-06-16T19:38:41.943Z,994.53
2016-06-16T19:39:41.837Z,994.5
2016-06-16T19:40:41.810Z,994.48
2016-06-16T19:41:41.797Z,994.49
2016-06-16T19:42:41.785Z,994.5
2016-06-16T19:43:41.741Z,994.47
2016-06-16T19:44:41.792Z,994.42
2016-06-16T19:45:42.077Z,994.39
2016-06-16T19:46:41.690Z,994.36
2016-06-16T19:47:41.677Z,994.4
2016-06-16T19:48:41.650Z,994.39
2016-06-16T19:49:41.637Z,994.35
2016-06-16T19:50:41.610Z,994.4
2016-06-16T19:51:41.598Z,994.42
2016-06-16T19:52:41.570Z,994.47
2016-06-16T19:53:41.605Z,994.48
2016-06-16T19:54:41.529Z,994.49
2016-06-16T19:55:41.502Z,994.52
2016-06-16T19:56:41.490Z,994.5
2016-06-16T19:57:41.556Z,994.5
2016-06-16T19:58:41.450Z,994.52
2016-06-16T19:59:41.454Z,994.5
2016-06-16T20:00:41.441Z,994.49
2016-06-16T20:01:41.383Z,994.47
2016-06-16T20:02:41.370Z,994.41
2016-06-16T20:03:41.435Z,994.37
2016-06-16T20:04:41.330Z,994.35
2016-06-16T20:05:41.303Z,994.36
2016-06-16T20:06:41.275Z,994.37
2016-06-16T20:07:41.262Z,994.36
2016-06-16T20:08:41.265Z,994.38
2016-06-16T20:09:41.238Z,994.32
2016-06-16T20:10:41.273Z,994.31
2016-06-16T20:11:41.182Z,994.32
2016-06-16T20:12:41.171Z,994.35
2016-06-16T20:13:41.142Z,994.35
2016-06-16T20:14:41.115Z,994.39